Time;durP1;ratioP1;P1;durP2;ratioP2;P2;SDS_P1;SDS_P2;PMS_P1;PMS_P2;Temp;Humidity;BMP_temperature;BMP_pressure;BME280_temperature;BME280_humidity;BME280_pressure;Samples;Min_cycle;Max_cycle;Signal;HPM_P1;HPM_P2
2024/03/30 00:00:42;;;;;;;7.57;4.87;;;;;;;12.96;50.21;99351.75;5061415;28;20240;-66
2024/03/30 00:03:11;;;;;;;8.90;4.67;;;;;;;12.92;49.70;99344.97;5065329;28;20202;-67
2024/03/30 00:05:38;;;;;;;10.03;4.90;;;;;;;12.91;50.27;99342.44;5052797;28;20214;-66
2024/03/30 00:08:06;;;;;;;8.27;4.93;;;;;;;12.87;50.00;99346.88;5058608;28;20213;-66
2024/03/30 00:10:32;;;;;;;14.03;5.50;;;;;;;12.83;50.23;99340.09;5053306;28;20212;-67
2024/03/30 00:13:00;;;;;;;8.37;4.90;;;;;;;12.79;49.97;99344.53;5055336;28;20205;-68
2024/03/30 00:15:27;;;;;;;13.20;5.20;;;;;;;12.77;50.63;99340.28;5049532;28;20653;-66
2024/03/30 00:17:54;;;;;;;9.30;5.80;;;;;;;12.72;50.97;99334.44;5041905;28;20214;-66
2024/03/30 00:20:22;;;;;;;9.27;4.73;;;;;;;12.67;50.83;99329.41;5052038;28;20234;-66
2024/03/30 00:22:50;;;;;;;10.50;5.13;;;;;;;12.63;51.15;99334.72;5054197;28;20205;-67
2024/03/30 00:25:18;;;;;;;8.43;5.20;;;;;;;12.56;51.06;99332.34;5050803;28;20335;-67
2024/03/30 00:27:45;;;;;;;8.43;4.97;;;;;;;12.41;51.47;99326.78;5043880;28;20212;-67
2024/03/30 00:30:12;;;;;;;10.10;5.23;;;;;;;12.37;51.40;99330.34;5051105;28;20206;-69
2024/03/30 00:32:40;;;;;;;10.03;5.70;;;;;;;12.32;51.76;99338.25;5060731;28;20205;-67
2024/03/30 00:35:06;;;;;;;9.20;5.47;;;;;;;12.26;52.00;99335.81;5047864;28;20213;-69
2024/03/30 00:37:34;;;;;;;8.57;5.10;;;;;;;12.23;52.70;99323.03;5040258;28;20217;-66
2024/03/30 00:40:00;;;;;;;9.97;5.07;;;;;;;12.23;52.21;99317.88;5051815;28;20703;-68
2024/03/30 00:42:27;;;;;;;11.90;5.33;;;;;;;12.22;52.70;99310.97;5055875;28;20206;-68
2024/03/30 00:44:54;;;;;;;8.93;5.43;;;;;;;12.23;53.10;99317.88;5053558;28;20209;-67
2024/03/30 00:47:21;;;;;;;8.30;5.33;;;;;;;12.24;53.21;99304.91;5057778;28;20209;-69
2024/03/30 00:49:48;;;;;;;11.37;5.33;;;;;;;12.28;53.62;99310.81;5058140;28;20202;-65
2024/03/30 00:52:16;;;;;;;8.73;5.10;;;;;;;12.30;53.58;99303.88;5057003;28;20220;-66
2024/03/30 00:54:43;;;;;;;8.67;5.23;;;;;;;12.33;53.42;99307.22;5051842;28;20214;-70
2024/03/30 00:57:11;;;;;;;9.87;5.80;;;;;;;12.35;53.49;99312.31;5051144;28;20206;-65
2024/03/30 00:59:38;;;;;;;8.63;5.30;;;;;;;12.35;53.41;99317.47;5055821;28;20213;-67
2024/03/30 01:02:05;;;;;;;10.90;5.20;;;;;;;12.36;53.73;99314.00;5054180;28;20692;-65
2024/03/30 01:04:34;;;;;;;11.13;5.47;;;;;;;12.33;54.15;99314.09;5061313;28;20209;-66
2024/03/30 01:07:02;;;;;;;7.73;4.70;;;;;;;12.34;54.43;99310.63;5068618;28;20274;-64
2024/03/30 01:09:29;;;;;;;8.60;5.03;;;;;;;12.34;54.36;99310.63;5060927;28;20206;-66
2024/03/30 01:11:57;;;;;;;7.17;4.43;;;;;;;12.36;54.31;99308.00;5058309;28;20577;-65
2024/03/30 01:14:24;;;;;;;7.57;4.83;;;;;;;12.37;54.52;99309.69;5051959;28;20692;-66
2024/03/30 01:16:52;;;;;;;9.73;4.43;;;;;;;12.41;54.61;99306.09;5048200;28;20216;-65
2024/03/30 01:19:19;;;;;;;7.80;5.00;;;;;;;12.42;54.20;99297.47;5052635;28;20245;-65
2024/03/30 01:21:47;;;;;;;8.20;4.77;;;;;;;12.39;54.62;99310.50;5066086;28;20220;-66
2024/03/30 01:24:14;;;;;;;9.60;5.30;;;;;;;12.39;54.70;99307.91;5053485;28;20577;-66
2024/03/30 01:26:58;;;;;;;8.07;5.20;;;;;;;12.38;55.08;99312.22;5061877;28;20551;-67
2024/03/30 01:29:24;;;;;;;9.00;5.43;;;;;;;12.37;54.94;99318.28;5054317;28;20664;-65
2024/03/30 01:31:53;;;;;;;10.00;5.03;;;;;;;12.35;55.57;99314.91;5051194;28;20281;-64
2024/03/30 01:34:20;;;;;;;10.00;5.13;;;;;;;12.35;55.52;99314.91;5054780;28;20205;-65
2024/03/30 01:36:47;;;;;;;9.43;5.00;;;;;;;12.36;55.40;99323.50;5056805;28;20209;-64
2024/03/30 01:39:13;;;;;;;7.53;4.83;;;;;;;12.36;55.43;99314.00;5060743;28;20218;-64
2024/03/30 01:41:40;;;;;;;7.67;4.77;;;;;;;12.37;55.87;99310.56;5067527;28;20222;-64
2024/03/30 01:44:07;;;;;;;6.20;4.23;;;;;;;12.41;55.63;99314.72;5063959;28;20209;-67
2024/03/30 01:46:35;;;;;;;8.10;4.57;;;;;;;12.42;55.93;99310.41;5070152;28;20687;-65
2024/03/30 01:49:02;;;;;;;7.97;4.90;;;;;;;12.41;55.63;99317.31;5053767;28;20671;-68
2024/03/30 01:51:30;;;;;;;10.17;4.90;;;;;;;12.42;56.01;99308.66;5049731;28;20217;-66
2024/03/30 01:53:58;;;;;;;9.63;4.57;;;;;;;12.39;55.99;99313.91;5055791;28;20240;-66
2024/03/30 01:56:26;;;;;;;6.60;4.73;;;;;;;12.39;56.51;99310.50;5069587;28;20216;-66
2024/03/30 01:58:53;;;;;;;10.13;4.70;;;;;;;12.38;56.03;99316.56;5053417;28;20206;-64
2024/03/30 02:01:23;;;;;;;7.17;4.20;;;;;;;12.33;56.63;99324.41;5053182;28;20229;-64
2024/03/30 02:03:51;;;;;;;9.47;4.50;;;;;;;12.31;56.55;99311.56;5070627;28;20205;-63
2024/03/30 02:06:22;;;;;;;10.13;4.93;;;;;;;12.30;56.57;99316.78;5062549;28;20216;-65
2024/03/30 02:08:51;;;;;;;9.90;4.87;;;;;;;12.30;56.49;99302.13;5051654;28;20201;-62
2024/03/30 02:11:19;;;;;;;8.70;5.00;;;;;;;12.28;57.05;99298.75;5063702;28;20743;-64
2024/03/30 02:13:46;;;;;;;9.73;4.70;;;;;;;12.27;56.71;99314.28;5056494;28;20622;-65
2024/03/30 02:16:18;;;;;;;7.87;4.70;;;;;;;12.26;56.17;99312.59;5070954;28;20205;-62
2024/03/30 02:18:46;;;;;;;8.73;4.97;;;;;;;12.22;56.89;99310.97;5072966;28;20213;-63
2024/03/30 02:21:13;;;;;;;7.47;4.90;;;;;;;12.18;56.92;99307.66;5071343;28;20228;-64
2024/03/30 02:23:40;;;;;;;8.70;5.13;;;;;;;12.17;57.04;99318.03;5056972;28;20206;-64
2024/03/30 02:26:07;;;;;;;9.73;5.00;;;;;;;12.16;57.12;99322.38;5049072;28;20265;-63
2024/03/30 02:28:33;;;;;;;7.90;4.87;;;;;;;12.17;57.37;99323.19;5062531;28;20271;-67
2024/03/30 02:31:00;;;;;;;9.10;4.73;;;;;;;12.18;57.30;99322.31;5063124;28;20569;-65
2024/03/30 02:33:26;;;;;;;8.50;4.57;;;;;;;12.17;57.48;99318.03;5057746;28;20209;-63
2024/03/30 02:35:54;;;;;;;7.83;4.67;;;;;;;12.15;57.73;99322.38;5072333;28;20210;-64
2024/03/30 02:38:20;;;;;;;7.17;4.23;;;;;;;12.16;57.72;99314.63;5071271;28;20203;-63
2024/03/30 02:40:51;;;;;;;8.60;4.50;;;;;;;12.17;57.79;99318.03;5054323;28;20233;-64
2024/03/30 02:43:16;;;;;;;10.53;4.90;;;;;;;12.18;57.99;99317.13;5063628;28;20239;-65
2024/03/30 02:45:43;;;;;;;7.63;4.97;;;;;;;12.17;58.03;99324.03;5047631;28;20618;-65
2024/03/30 02:48:09;;;;;;;8.70;4.90;;;;;;;12.17;57.87;99324.03;5055150;28;20210;-63
2024/03/30 02:50:36;;;;;;;7.70;4.77;;;;;;;12.14;58.21;99328.44;5067803;28;20205;-63
2024/03/30 02:53:02;;;;;;;8.37;4.33;;;;;;;12.13;58.37;99322.44;5053351;28;20209;-63
2024/03/30 02:55:29;;;;;;;6.80;4.03;;;;;;;12.12;58.80;99327.66;5052624;28;20206;-64
2024/03/30 02:57:57;;;;;;;7.93;4.47;;;;;;;12.12;58.58;99327.66;5052114;28;20206;-62
2024/03/30 03:00:25;;;;;;;7.47;3.90;;;;;;;12.16;58.60;99337.00;5054478;28;20649;-63
2024/03/30 03:02:52;;;;;;;7.40;4.37;;;;;;;12.13;58.92;99329.34;5063145;28;20214;-64
2024/03/30 03:05:19;;;;;;;10.63;4.37;;;;;;;12.14;58.93;99333.63;5047340;28;20210;-65
2024/03/30 03:07:45;;;;;;;7.63;4.63;;;;;;;12.11;59.23;99331.13;5057661;28;20232;-64
2024/03/30 03:10:14;;;;;;;6.83;4.37;;;;;;;12.09;59.41;99328.59;5056137;28;20237;-67
2024/03/30 03:12:40;;;;;;;6.70;3.80;;;;;;;12.06;59.24;99328.69;5062959;28;20202;-65
2024/03/30 03:15:08;;;;;;;7.30;4.10;;;;;;;12.05;59.49;99324.41;5050246;28;20217;-65
2024/03/30 03:17:35;;;;;;;8.60;4.00;;;;;;;12.03;59.84;99315.84;5047481;28;20234;-65
2024/03/30 03:20:05;;;;;;;7.67;4.10;;;;;;;12.03;59.85;99328.75;5071583;28;20247;-64
2024/03/30 03:22:31;;;;;;;8.30;3.87;;;;;;;12.00;60.04;99321.97;5054868;28;20222;-65
2024/03/30 03:24:59;;;;;;;7.07;4.43;;;;;;;12.00;60.07;99321.09;5052807;28;20217;-65
2024/03/30 03:27:25;;;;;;;9.60;4.23;;;;;;;11.95;60.41;99321.25;5053656;28;20206;-65
2024/03/30 03:29:52;;;;;;;7.87;4.40;;;;;;;11.97;60.84;99327.22;5081497;28;20212;-66
2024/03/30 03:32:20;;;;;;;6.73;3.77;;;;;;;11.97;60.50;99331.53;5055013;28;20210;-64
2024/03/30 03:34:47;;;;;;;8.37;4.33;;;;;;;11.97;60.52;99334.97;5060271;28;20596;-64
2024/03/30 03:37:13;;;;;;;7.87;4.37;;;;;;;11.99;60.98;99335.75;5063002;28;20217;-66
2024/03/30 03:39:40;;;;;;;6.50;4.07;;;;;;;11.99;60.85;99329.75;5055499;28;20284;-67
2024/03/30 03:42:06;;;;;;;8.47;4.20;;;;;;;12.00;61.07;99342.63;5052418;28;20238;-65
2024/03/30 03:44:33;;;;;;;7.30;4.13;;;;;;;12.01;61.50;99333.16;5069763;28;20260;-66
2024/03/30 03:46:59;;;;;;;6.87;4.03;;;;;;;12.04;61.23;99344.22;5063797;28;20629;-66
2024/03/30 03:49:29;;;;;;;7.83;3.97;;;;;;;12.07;61.37;99341.53;5059565;28;20205;-62
2024/03/30 03:51:56;;;;;;;10.33;4.37;;;;;;;12.08;60.74;99340.66;5065926;28;20201;-65
2024/03/30 03:54:23;;;;;;;7.70;4.33;;;;;;;12.09;61.38;99344.09;5061965;28;20240;-64
2024/03/30 03:56:49;;;;;;;9.20;4.40;;;;;;;12.09;61.47;99341.50;5041545;28;20676;-63
2024/03/30 03:59:16;;;;;;;6.23;3.50;;;;;;;12.09;61.40;99344.09;5049571;28;20241;-64
2024/03/30 04:01:43;;;;;;;8.03;4.37;;;;;;;12.12;61.28;99341.41;5042649;28;20696;-65
2024/03/30 04:04:10;;;;;;;6.27;3.33;;;;;;;12.13;61.62;99342.25;5058237;28;20375;-64
2024/03/30 04:06:37;;;;;;;7.57;3.67;;;;;;;12.12;61.87;99344.00;5070717;28;20259;-64
2024/03/30 04:09:04;;;;;;;7.60;3.77;;;;;;;12.12;61.97;99340.59;5069448;28;20255;-64
2024/03/30 04:11:30;;;;;;;6.50;3.93;;;;;;;12.08;62.16;99351.00;5055316;28;20213;-64
2024/03/30 04:14:00;;;;;;;8.70;4.07;;;;;;;12.12;62.18;99350.91;5060424;28;20312;-63
2024/03/30 04:16:27;;;;;;;8.17;4.00;;;;;;;12.13;62.26;99358.59;5034075;28;20201;-67
2024/03/30 04:18:54;;;;;;;8.57;4.00;;;;;;;12.12;62.27;99362.09;5050704;28;20297;-67
2024/03/30 04:21:20;;;;;;;6.47;3.37;;;;;;;12.11;62.06;99369.84;5051153;28;20233;-69
2024/03/30 04:23:50;;;;;;;5.80;3.37;;;;;;;12.11;62.16;99375.03;5051782;28;20202;-68
2024/03/30 04:26:18;;;;;;;6.67;3.73;;;;;;;12.08;62.37;99371.66;5051163;28;20578;-65
2024/03/30 04:28:45;;;;;;;6.13;3.60;;;;;;;12.06;62.55;99376.00;5066988;28;20594;-66
2024/03/30 04:31:12;;;;;;;8.33;3.70;;;;;;;12.03;62.88;99381.25;5061555;28;20209;-67
2024/03/30 04:33:39;;;;;;;5.60;3.30;;;;;;;12.02;63.12;99387.31;5053086;28;20569;-66
2024/03/30 04:36:06;;;;;;;6.77;3.40;;;;;;;12.02;63.25;99387.31;5051278;28;20221;-69
2024/03/30 04:38:34;;;;;;;11.13;3.80;;;;;;;12.01;63.27;99385.63;5062932;28;20220;-67
2024/03/30 04:41:04;;;;;;;9.53;3.70;;;;;;;12.02;63.49;99389.88;5049879;28;20689;-67
2024/03/30 04:43:32;;;;;;;7.13;3.40;;;;;;;12.02;63.49;99392.47;5058959;28;20286;-68
2024/03/30 04:46:01;;;;;;;6.97;3.60;;;;;;;12.04;64.15;99384.66;5068971;28;20675;-67
2024/03/30 04:48:30;;;;;;;6.27;3.47;;;;;;;12.04;63.98;99385.53;5052157;28;20221;-68
2024/03/30 04:50:59;;;;;;;7.60;3.43;;;;;;;12.06;64.21;99391.50;5069012;28;20571;-68
2024/03/30 04:53:32;;;;;;;6.83;3.73;;;;;;;12.12;64.16;99387.06;5054455;28;20203;-67
2024/03/30 04:56:00;;;;;;;6.13;3.43;;;;;;;12.16;64.23;99388.66;5059865;28;20205;-68
2024/03/30 04:58:30;;;;;;;9.47;3.60;;;;;;;12.22;63.88;99396.22;5057116;28;20204;-70
2024/03/30 05:01:00;;;;;;;8.47;3.03;;;;;;;12.27;63.82;99391.78;5070612;28;20212;-67
2024/03/30 05:03:27;;;;;;;6.93;3.00;;;;;;;12.31;63.92;99391.66;5068905;28;20220;-66
2024/03/30 05:05:53;;;;;;;7.17;3.53;;;;;;;12.30;64.05;99394.28;5065017;28;20209;-67
2024/03/30 05:08:22;;;;;;;8.93;3.07;;;;;;;12.30;64.21;99389.13;5067282;28;20209;-67
2024/03/30 05:10:50;;;;;;;6.47;4.00;;;;;;;12.29;64.08;99398.56;5053234;28;20536;-67
2024/03/30 05:13:17;;;;;;;6.73;2.93;;;;;;;12.29;64.01;99395.16;5043896;28;20221;-68
2024/03/30 05:15:44;;;;;;;4.47;2.90;;;;;;;12.28;63.81;99388.31;5049818;28;20217;-67
2024/03/30 05:18:13;;;;;;;5.70;2.93;;;;;;;12.27;64.69;99386.63;5057854;28;20236;-66
2024/03/30 05:20:49;;;;;;;7.43;3.50;;;;;;;12.26;64.67;99378.03;5059954;28;20617;-67
2024/03/30 05:23:18;;;;;;;6.07;3.13;;;;;;;12.27;64.63;99377.13;5060594;28;20198;-67
2024/03/30 05:25:44;;;;;;;5.30;2.77;;;;;;;12.27;64.75;99369.38;5064788;28;20561;-67
2024/03/30 05:28:12;;;;;;;5.87;2.97;;;;;;;12.32;64.62;99369.25;5050048;28;20221;-67
2024/03/30 05:30:39;;;;;;;6.10;3.20;;;;;;;12.35;64.83;99373.47;5041323;28;20214;-65
2024/03/30 05:33:08;;;;;;;7.37;3.47;;;;;;;12.38;64.49;99365.63;5052245;28;20205;-69
2024/03/30 05:35:35;;;;;;;5.83;2.87;;;;;;;12.39;64.30;99370.75;5065551;28;20652;-65
2024/03/30 05:38:01;;;;;;;7.20;3.23;;;;;;;12.43;64.61;99374.94;5067648;28;20279;-64
2024/03/30 05:40:31;;;;;;;7.87;3.27;;;;;;;12.46;64.46;99369.69;5053097;28;20210;-67
2024/03/30 05:42:58;;;;;;;6.60;3.47;;;;;;;12.48;64.54;99370.50;5055277;28;20224;-66
2024/03/30 05:45:25;;;;;;;5.93;3.03;;;;;;;12.52;64.55;99369.50;5064189;28;20208;-64
2024/03/30 05:47:51;;;;;;;8.77;3.70;;;;;;;12.58;64.31;99356.38;5046385;28;20220;-65
2024/03/30 05:50:21;;;;;;;6.60;3.40;;;;;;;12.63;64.24;99364.00;5058916;28;20210;-64
2024/03/30 05:52:48;;;;;;;7.50;3.10;;;;;;;12.68;63.88;99369.03;5063924;28;20577;-66
2024/03/30 05:55:15;;;;;;;6.13;2.90;;;;;;;12.71;64.06;99376.69;5069368;28;20205;-65
2024/03/30 05:57:41;;;;;;;6.40;3.10;;;;;;;12.76;63.89;99369.63;5057183;28;20653;-64
2024/03/30 06:00:10;;;;;;;7.77;2.83;;;;;;;12.80;64.05;99368.63;5069591;28;20201;-63
2024/03/30 06:02:36;;;;;;;10.67;3.13;;;;;;;12.90;63.84;99371.78;5046973;28;20253;-65
2024/03/30 06:05:06;;;;;;;7.37;3.17;;;;;;;12.95;63.72;99370.72;5054779;28;20649;-64
2024/03/30 06:07:33;;;;;;;5.30;3.13;;;;;;;13.00;63.09;99374.03;5070136;28;20201;-64
2024/03/30 06:10:01;;;;;;;6.07;2.93;;;;;;;13.02;63.13;99372.22;5059675;28;20578;-65
2024/03/30 06:12:27;;;;;;;4.53;2.60;;;;;;;13.10;63.10;99373.72;5053053;28;20210;-65
2024/03/30 06:14:54;;;;;;;6.00;2.93;;;;;;;13.16;63.27;99373.53;5054383;28;20202;-67
2024/03/30 06:17:20;;;;;;;8.90;3.20;;;;;;;13.24;62.84;99380.16;5041734;28;20210;-66
2024/03/30 06:19:46;;;;;;;5.00;2.70;;;;;;;13.33;62.90;99378.16;5053488;28;20259;-67
2024/03/30 06:22:13;;;;;;;4.27;2.23;;;;;;;13.40;62.82;99377.94;5060109;28;20677;-69
2024/03/30 06:24:41;;;;;;;9.23;3.37;;;;;;;13.50;62.08;99381.88;5061913;28;20208;-67
2024/03/30 06:27:08;;;;;;;6.07;2.90;;;;;;;13.62;62.56;99378.00;5043543;28;20218;-64
2024/03/30 06:29:35;;;;;;;7.37;2.90;;;;;;;13.81;62.35;99378.22;5032872;28;20218;-66
2024/03/30 06:32:04;;;;;;;6.67;3.27;;;;;;;14.18;61.67;99377.75;5049632;28;20213;-66
2024/03/30 06:34:32;;;;;;;6.17;2.73;;;;;;;14.98;60.10;99379.88;5051907;28;20241;-67
2024/03/30 06:36:58;;;;;;;6.10;2.67;;;;;;;16.03;58.11;99376.34;5052957;28;20221;-68
2024/03/30 06:39:27;;;;;;;8.40;3.55;;;;;;;17.19;54.92;99381.28;5052268;28;20571;-65
2024/03/30 06:44:40;;;;;;;7.45;3.30;;;;;;;20.11;46.23;99371.31;5043015;28;20214;-65
2024/03/30 06:47:07;;;;;;;4.57;2.47;;;;;;;21.48;41.98;99361.63;5048749;28;20218;-62
2024/03/30 06:49:35;;;;;;;9.20;3.20;;;;;;;22.63;39.12;99362.31;5052455;28;20206;-65
2024/03/30 06:52:02;;;;;;;7.10;2.80;;;;;;;23.56;36.35;99362.44;5055140;28;20206;-67
2024/03/30 06:54:28;;;;;;;9.60;3.42;;;;;;;24.50;35.04;99356.03;5051901;28;20213;-67
2024/03/30 06:56:57;;;;;;;8.55;2.58;;;;;;;25.16;34.11;99365.66;5056392;28;20213;-61
2024/03/30 06:59:24;;;;;;;7.40;3.10;;;;;;;25.63;32.48;99359.03;5072585;28;20551;-63
2024/03/30 07:01:50;;;;;;;7.72;2.80;;;;;;;26.08;31.97;99347.31;5072454;28;20229;-62
2024/03/30 07:04:17;;;;;;;6.47;3.38;;;;;;;26.36;31.27;99345.69;5055238;28;20587;-65
2024/03/30 07:06:43;;;;;;;10.18;3.10;;;;;;;26.87;30.70;99355.25;5041130;28;20734;-64
2024/03/30 07:09:10;;;;;;;6.60;2.97;;;;;;;27.35;28.90;99349.13;5052270;28;20213;-64
2024/03/30 07:11:36;;;;;;;7.07;2.63;;;;;;;27.78;28.66;99345.16;5049076;28;20206;-64
2024/03/30 07:14:05;;;;;;;6.07;3.03;;;;;;;28.76;27.65;99349.81;5051323;28;20213;-63
2024/03/30 07:16:31;;;;;;;6.38;2.70;;;;;;;29.73;26.47;99351.59;5052082;28;20201;-63
2024/03/30 07:18:58;;;;;;;5.65;2.83;;;;;;;30.96;25.16;99344.84;5052043;28;20629;-63
2024/03/30 07:21:27;;;;;;;6.13;2.72;;;;;;;32.18;22.15;99346.50;5050502;28;20260;-63
2024/03/30 07:23:54;;;;;;;8.90;2.97;;;;;;;33.08;21.15;99345.94;5051794;28;20210;-63
2024/03/30 07:26:20;;;;;;;7.50;3.10;;;;;;;33.48;20.28;99356.47;5035152;28;20210;-73
2024/03/30 07:28:47;;;;;;;5.05;2.45;;;;;;;33.63;19.30;99357.31;5038486;28;20206;-64
2024/03/30 07:31:14;;;;;;;6.72;2.88;;;;;;;33.63;19.65;99350.13;5044226;28;20217;-65
2024/03/30 07:33:43;;;;;;;7.25;3.00;;;;;;;33.57;20.38;99348.19;5051327;28;20214;-66
2024/03/30 07:36:09;;;;;;;5.47;3.08;;;;;;;33.14;20.65;99363.06;5051651;28;20216;-63
2024/03/30 07:38:40;;;;;;;9.15;2.90;;;;;;;32.59;20.67;99361.47;5044025;28;20210;-63
2024/03/30 07:41:07;;;;;;;8.23;3.08;;;;;;;31.68;21.28;99366.28;5037810;28;20225;-66
2024/03/30 07:43:34;;;;;;;6.82;3.05;;;;;;;30.78;23.88;99373.44;5058901;28;20707;-66
2024/03/30 07:46:01;;;;;;;9.15;3.05;;;;;;;30.29;24.17;99367.97;5040712;28;20206;-63
2024/03/30 07:48:29;;;;;;;6.97;2.50;;;;;;;30.73;24.25;99365.91;5030868;28;20661;-67
2024/03/30 07:50:55;;;;;;;10.05;2.70;;;;;;;31.84;23.02;99362.72;5042085;28;20207;-65
2024/03/30 07:53:22;;;;;;;6.25;2.92;;;;;;;32.74;21.75;99361.53;5048488;28;20228;-65
2024/03/30 07:55:48;;;;;;;6.70;2.88;;;;;;;33.80;20.67;99356.13;5037309;28;20214;-65
2024/03/30 07:58:15;;;;;;;11.93;3.13;;;;;;;34.83;19.74;99354.28;5039764;28;20202;-66
2024/03/30 08:00:41;;;;;;;5.60;2.95;;;;;;;34.93;18.96;99353.97;5045978;28;20214;-65
2024/03/30 08:03:08;;;;;;;10.02;3.00;;;;;;;34.76;19.13;99356.06;5039945;28;20240;-63
2024/03/30 08:05:37;;;;;;;7.45;2.90;;;;;;;34.96;19.60;99348.22;5045034;28;20578;-66
2024/03/30 08:08:05;;;;;;;9.80;3.30;;;;;;;34.93;19.04;99352.09;5051296;28;20222;-65
2024/03/30 08:10:31;;;;;;;8.57;2.97;;;;;;;34.84;19.13;99356.78;5050065;28;20232;-65
2024/03/30 08:12:58;;;;;;;9.10;3.30;;;;;;;34.96;18.94;99348.22;5061298;28;20206;-65
2024/03/30 08:15:23;;;;;;;10.68;3.08;;;;;;;35.04;18.34;99348.94;5045259;28;20206;-64
2024/03/30 08:17:50;;;;;;;5.32;2.55;;;;;;;34.56;18.79;99356.69;5035495;28;20233;-68
2024/03/30 08:20:16;;;;;;;8.65;2.78;;;;;;;34.63;19.33;99348.75;5048002;28;20284;-64
2024/03/30 08:22:47;;;;;;;5.00;2.55;;;;;;;34.59;19.00;99350.13;5060431;28;20308;-64
2024/03/30 08:25:13;;;;;;;8.13;2.80;;;;;;;34.27;18.77;99346.03;5042261;28;20206;-65
2024/03/30 08:27:40;;;;;;;9.10;3.25;;;;;;;32.90;20.78;99345.41;5045105;28;20206;-63
2024/03/30 08:30:07;;;;;;;8.02;2.88;;;;;;;31.99;22.22;99345.06;5049207;28;20214;-65
2024/03/30 08:32:34;;;;;;;8.13;2.83;;;;;;;31.34;23.12;99341.72;5052302;28;20206;-63
2024/03/30 08:35:00;;;;;;;10.70;3.40;;;;;;;30.22;23.73;99345.69;5043077;28;20267;-65
2024/03/30 08:37:27;;;;;;;6.28;2.83;;;;;;;29.15;25.10;99346.84;5050950;28;20671;-66
2024/03/30 08:39:54;;;;;;;12.75;3.13;;;;;;;28.04;26.44;99347.97;5050867;28;20606;-69
2024/03/30 08:42:21;;;;;;;9.85;2.50;;;;;;;27.35;27.59;99355.25;5048480;28;20233;-63
2024/03/30 08:44:47;;;;;;;7.68;2.83;;;;;;;26.98;28.80;99345.38;5048787;28;20213;-64
2024/03/30 08:47:14;;;;;;;10.20;2.95;;;;;;;26.80;28.70;99347.03;5047356;28;20281;-64
2024/03/30 08:49:41;;;;;;;6.07;2.67;;;;;;;26.75;28.99;99351.91;5045756;28;20221;-68
2024/03/30 08:52:07;;;;;;;9.10;2.83;;;;;;;26.65;28.95;99351.06;5049685;28;20236;-64
2024/03/30 08:54:33;;;;;;;8.45;3.33;;;;;;;26.36;29.80;99349.16;5050201;28;20229;-62
2024/03/30 08:57:02;;;;;;;10.40;3.03;;;;;;;25.98;30.47;99348.09;5059332;28;20636;-64
2024/03/30 08:59:31;;;;;;;9.85;2.90;;;;;;;25.40;31.60;99345.13;5046967;28;20205;-67
2024/03/30 09:01:58;;;;;;;6.30;2.60;;;;;;;24.75;32.78;99348.78;5049858;28;20256;-63
2024/03/30 09:04:24;;;;;;;7.05;2.80;;;;;;;24.43;33.54;99351.38;5050512;28;20206;-62
2024/03/30 09:06:51;;;;;;;7.95;2.97;;;;;;;24.22;34.01;99354.72;5049631;28;20679;-64
2024/03/30 09:09:17;;;;;;;10.40;2.85;;;;;;;24.18;34.22;99352.44;5050002;28;20661;-62
2024/03/30 09:11:44;;;;;;;6.45;2.40;;;;;;;24.30;34.18;99359.38;5047657;28;20206;-63
2024/03/30 09:14:12;;;;;;;10.48;2.72;;;;;;;24.46;34.06;99367.78;5052193;28;20620;-62
2024/03/30 09:16:38;;;;;;;9.73;2.80;;;;;;;24.44;33.61;99353.88;5049554;28;20218;-63
2024/03/30 09:19:04;;;;;;;8.52;2.75;;;;;;;24.56;33.80;99352.06;5049365;28;20252;-63
2024/03/30 09:21:31;;;;;;;7.28;2.17;;;;;;;24.31;33.58;99353.16;5051432;28;20210;-63
2024/03/30 09:23:57;;;;;;;7.57;2.85;;;;;;;24.12;34.75;99353.78;5051699;28;20693;-63
2024/03/30 09:26:24;;;;;;;9.77;2.40;;;;;;;24.16;35.27;99344.69;5046801;28;20217;-63
2024/03/30 09:28:50;;;;;;;8.60;2.35;;;;;;;24.17;34.48;99341.09;5065993;28;20287;-63
2024/03/30 09:31:18;;;;;;;12.20;2.80;;;;;;;24.16;34.33;99341.22;5047508;28;20637;-63
2024/03/30 09:33:44;;;;;;;6.38;2.47;;;;;;;24.32;34.89;99339.03;5041087;28;20622;-63
2024/03/30 09:36:17;;;;;;;5.05;2.40;;;;;;;24.41;34.27;99338.31;5048081;28;20214;-62
2024/03/30 09:38:43;;;;;;;9.57;2.70;;;;;;;24.52;33.52;99342.72;5041464;28;20209;-63
2024/03/30 09:41:13;;;;;;;5.68;2.60;;;;;;;24.54;34.27;99331.09;5049968;28;20578;-64
2024/03/30 09:43:40;;;;;;;8.85;2.63;;;;;;;24.47;33.52;99337.81;5043789;28;20226;-64
2024/03/30 09:46:07;;;;;;;8.75;2.58;;;;;;;24.61;33.52;99323.56;5049438;28;20265;-62
2024/03/30 09:48:37;;;;;;;5.85;2.40;;;;;;;24.83;33.03;99322.63;5070240;28;20213;-65
2024/03/30 09:51:07;;;;;;;3.90;2.15;;;;;;;25.05;32.48;99322.53;5055265;28;20263;-65
2024/03/30 09:53:36;;;;;;;9.23;2.80;;;;;;;25.21;32.29;99323.91;5064045;28;20205;-64
2024/03/30 09:56:04;;;;;;;9.65;2.72;;;;;;;25.24;32.23;99323.66;5069623;28;20586;-66
2024/03/30 09:58:33;;;;;;;10.13;2.90;;;;;;;25.27;31.80;99316.31;5069653;28;20217;-61
2024/03/30 10:01:01;;;;;;;7.40;2.33;;;;;;;25.20;31.44;99319.59;5069380;28;20212;-63
2024/03/30 10:03:26;;;;;;;10.00;2.00;;;;;;;25.15;31.78;99316.50;5069495;28;20225;-63
2024/03/30 10:05:58;;;;;;;9.57;2.15;;;;;;;25.19;31.38;99315.31;5086205;28;20213;-62
2024/03/30 10:08:27;;;;;;;4.95;1.90;;;;;;;25.11;31.63;99304.53;5069174;28;20244;-61
2024/03/30 10:11:04;;;;;;;7.72;2.38;;;;;;;25.06;32.03;99307.53;5069201;28;20255;-60
2024/03/30 10:13:30;;;;;;;9.27;2.40;;;;;;;25.04;33.03;99310.31;5057893;28;20275;-62
2024/03/30 10:15:57;;;;;;;9.38;3.10;;;;;;;25.03;33.12;99298.06;5048999;28;20210;-61
2024/03/30 10:18:24;;;;;;;7.13;2.40;;;;;;;25.11;32.89;99299.28;5049186;28;20259;-60
2024/03/30 10:20:51;;;;;;;7.25;2.03;;;;;;;25.14;32.23;99299.03;5049252;28;20253;-64
2024/03/30 10:23:19;;;;;;;8.50;2.42;;;;;;;25.32;31.95;99297.47;5052761;28;20312;-60
2024/03/30 10:25:53;;;;;;;8.75;2.83;;;;;;;25.62;31.95;99295.81;5052398;28;20210;-62
2024/03/30 10:28:20;;;;;;;8.52;2.53;;;;;;;25.84;31.36;99298.28;5052939;28;20691;-62
2024/03/30 10:30:48;;;;;;;12.55;2.78;;;;;;;25.93;30.50;99296.69;5052569;28;20217;-60
2024/03/30 10:33:17;;;;;;;10.38;2.40;;;;;;;25.76;30.60;99298.09;5052645;28;20258;-60
2024/03/30 10:35:45;;;;;;;11.55;2.42;;;;;;;25.69;30.97;99299.59;5052601;28;20214;-61
2024/03/30 10:38:12;;;;;;;8.50;2.17;;;;;;;25.70;30.77;99295.97;5052911;28;20573;-59
2024/03/30 10:40:42;;;;;;;5.93;2.33;;;;;;;25.69;30.90;99297.78;5052605;28;20662;-64
2024/03/30 10:43:08;;;;;;;7.90;1.75;;;;;;;25.63;30.10;99300.13;5052039;28;20237;-61
2024/03/30 10:45:35;;;;;;;7.63;2.10;;;;;;;25.62;29.67;99307.19;5052543;28;20563;-60
2024/03/30 10:48:04;;;;;;;7.18;1.83;;;;;;;25.52;30.16;99295.78;5052291;28;20225;-62
2024/03/30 10:50:32;;;;;;;7.28;2.17;;;;;;;25.52;29.23;99290.50;5069074;28;20730;-61
2024/03/30 10:52:58;;;;;;;6.47;2.17;;;;;;;25.50;30.50;99290.63;5052366;28;20206;-61
2024/03/30 10:55:25;;;;;;;4.93;1.80;;;;;;;25.36;30.56;99301.50;5052682;28;20599;-59
2024/03/30 10:57:56;;;;;;;6.35;2.25;;;;;;;25.22;29.63;99296.56;5052435;28;20210;-59
2024/03/30 11:00:24;;;;;;;8.75;1.77;;;;;;;25.18;29.52;99287.25;5052073;28;20221;-61
2024/03/30 11:02:53;;;;;;;7.85;2.05;;;;;;;25.16;29.91;99286.56;5051898;28;20233;-60
2024/03/30 11:05:21;;;;;;;8.40;2.03;;;;;;;25.28;30.68;99282.88;5052024;28;20256;-64
2024/03/30 11:07:50;;;;;;;6.53;1.95;;;;;;;25.39;30.42;99293.34;5052280;28;20210;-61
2024/03/30 11:10:17;;;;;;;7.65;1.90;;;;;;;25.43;30.60;99294.75;5052310;28;20553;-60
2024/03/30 11:12:43;;;;;;;8.90;1.73;;;;;;;25.58;30.33;99297.88;5051853;28;20661;-60
2024/03/30 11:15:12;;;;;;;7.70;2.00;;;;;;;25.69;30.53;99294.31;5051103;28;20264;-62
2024/03/30 11:17:42;;;;;;;3.95;1.58;;;;;;;25.74;29.45;99292.97;5052171;28;20550;-67
2024/03/30 11:20:12;;;;;;;5.10;2.08;;;;;;;25.47;29.06;99290.06;5051948;28;20237;-65
2024/03/30 11:22:49;;;;;;;7.05;1.77;;;;;;;25.26;29.07;99279.56;5051868;28;20232;-63
2024/03/30 11:25:21;;;;;;;7.18;1.90;;;;;;;25.28;30.11;99285.50;5051973;28;20206;-64
2024/03/30 11:27:49;;;;;;;5.25;2.10;;;;;;;25.32;29.81;99286.91;5051927;28;20213;-64
2024/03/30 11:30:29;;;;;;;7.78;1.63;;;;;;;25.42;29.76;99279.06;5051515;28;20210;-65
2024/03/30 11:33:05;;;;;;;6.72;2.10;;;;;;;25.53;29.10;99279.81;5050542;28;20556;-65
2024/03/30 11:35:41;;;;;;;6.55;1.77;;;;;;;25.53;29.06;99279.00;5051698;28;20574;-64